Aeroporto :
LOGIN :

Iscrizione | Disclaimer

   EN    FR    IT 

 










Sommario :    VFR   VFR Marginale   IFR   IFR Intensivo   IFR Molto Intensivo
Visibilità : 
Base nubi : 
>= 8 km
>= 3000ft
5 / 8 km
1000 / 3000 ft
1500m / 5 km
500 / 1000 ft
800 / 1500m
200 / 500 ft
< 800m
< 200 ft
Simboli :   Temporali  Nebbia  Neve Forte  Precipitazioni Forti  Vento > 20 kt
SIGMETs :   Varie  Temporali  Ghiacco  Turbolenza  Onda orograficha  Ceneri Vulcaniche






- Altitudine del aeroporto : 32 ft
- Codice IATA : LKZ


EGUL - RAF Lakenheath

ULTIMO METAR :
  • 230840Z 32005KT 9999 SCT022 BKN029 19/14 A2997 RMK AO2A SLP152 FZRANO $

METARs OBSOLETI :
  • 230755Z 29004KT 9999 BKN038 17/14 A2996 RMK AO2A DZB01E07 SLP149 P0000 T01710142 FZRANO $
  • 230701Z COR 31003KT 9999 BKN036 18/15 A2995 RMK SLP145 T01750148 FZRANO $ COR 0702
  • 230606Z 00000KT 9999 BKN035 16/14 A2994 RMK SLP142 P0000 T01590137 FZRANO $
  • 230555Z AUTO 00000KT 9999 FEW035 SCT047 16/14 A2994 RMK AO2 RAE15DZB15E18 SLP142 P0001 60008 T01580138 10195 20144 52009 FZRANO $
  • 230518Z AUTO 19004KT 9999 SCT027 16/15 A2993 RMK AO2 RAE15DZB15E18 SLP139 FZRANO $
  • 230505Z AUTO 00000KT 9999 -RA OVC025 15/13 A2993 RMK AO2 VIS 3600 RWY06 SLP139 FZRANO $
  • 230455Z AUTO 26004KT 8000 +RA BR BKN021 OVC030 16/14 A2993 RMK AO2 VIS 2600 RWY06 RAB22E23DZB23E24RAB24 CIG 021V030 SLP139 P0007 T01600138 FZRANO $
  • 230442Z AUTO 26007KT 9999 -RA OVC028 18/15 A2992 RMK AO2 RAB22E23DZB23E24RAB24 SLP135 FZRANO $
  • 230422Z AUTO 28003KT 9999 -RA OVC029 18/15 A2992 RMK AO2 RAB22 SLP135 FZRANO $

TAF AMD TAF EGUL
Valido dal 23 a 06 ore il 24 a 11 ore UTC


230631Z 2306/2411 VRB04KT 8000 -SHRA BKN030 QNH2992INS
BECMG 2308/2309 32010G15KT 9999 NSW BKN030 QNH2993INS
BECMG 2312/2313 34010G15KT 9999 BKN040 QNH2994INS
TEMPO 2313/2316 9000 -SHRA BKN025
BECMG 2316/2317 03010G15KT 9999 BKN035 BKN080 QNH2996INS
BECMG 2320/2321 04007KT 9999 SCT025 SCT080 QNH2998INS
BECMG 2400/2401 VRB04KT 6000 BR SCT080 QNH3002INS
BECMG 2405/2406 VRB04KT 8000 BR SCT100 QNH3010INS
BECMG 2408/2409 VRB06KT 9999 NSW SCT050 QNH3017INS TX21/2314Z TN18/2306Z



MetMap, La meteo Aeronautica in un colpo d'occhio ! - Copyright ORBIFLY Dicembre 2007 - Disclaimer

ORBIFLY MET'MAP TEAM :

Programmazione e sviluppo : Alexandra Zaïnal
Concezione : Baudouin d'Aumeries
Supporto tecnico e logistico : Manuel Goepfert
Aiuto : Marc-Olivier Méhu
Aiuto per la traduzione : Arnaldo La Scala




FONTI E CREDITI :

   NOAA